createdAt,value
2023-02-20T00:01:40.203Z,21.17
2023-02-20T00:04:08.712Z,18.93
2023-02-20T00:06:38.698Z,21.03
2023-02-20T00:09:07.239Z,22.50
2023-02-20T00:11:35.680Z,17.17
2023-02-20T00:14:04.163Z,28.00
2023-02-20T00:16:32.528Z,20.23
2023-02-20T00:19:01.118Z,19.83
2023-02-20T00:21:33.547Z,20.00
2023-02-20T00:24:03.577Z,21.03
2023-02-20T00:26:32.094Z,29.03
2023-02-20T00:29:00.562Z,29.13
2023-02-20T00:31:29.156Z,24.80
2023-02-20T00:33:57.692Z,25.60
2023-02-20T00:36:26.333Z,30.53
2023-02-20T00:38:54.976Z,26.73
2023-02-20T00:41:24.935Z,28.47
2023-02-20T00:43:53.411Z,26.20
2023-02-20T00:46:21.900Z,30.37
2023-02-20T00:48:50.997Z,36.17
2023-02-20T00:51:19.526Z,27.63
2023-02-20T00:53:47.981Z,30.17
2023-02-20T00:56:16.515Z,34.47
2023-02-20T00:58:46.345Z,38.83
2023-02-20T01:01:18.512Z,27.50
2023-02-20T01:03:46.902Z,34.33
2023-02-20T01:06:15.436Z,34.20
2023-02-20T01:08:43.841Z,26.83
2023-02-20T01:11:12.239Z,41.93
2023-02-20T01:13:40.856Z,31.93
2023-02-20T01:16:11.178Z,30.30
2023-02-20T01:18:39.884Z,38.30
2023-02-20T01:21:08.308Z,40.43
2023-02-20T01:23:36.770Z,33.10
2023-02-20T01:26:05.207Z,43.13
2023-02-20T01:28:33.582Z,38.77
2023-02-20T01:31:02.148Z,43.47
2023-02-20T01:33:32.032Z,42.60
2023-02-20T01:36:00.458Z,48.37
2023-02-20T01:38:29.068Z,41.70
2023-02-20T01:40:57.494Z,44.70
2023-02-20T01:43:25.823Z,40.63
2023-02-20T01:45:54.206Z,47.63
2023-02-20T01:48:22.962Z,42.07
2023-02-20T01:50:52.971Z,48.70
2023-02-20T01:53:21.969Z,40.10
2023-02-20T01:55:51.180Z,39.87
2023-02-20T01:58:19.956Z,49.40
2023-02-20T02:00:48.576Z,43.07
2023-02-20T02:03:17.968Z,39.03
2023-02-20T02:05:46.729Z,48.37
2023-02-20T02:08:17.084Z,43.87
2023-02-20T02:10:46.277Z,43.90
2023-02-20T02:13:14.729Z,46.80
2023-02-20T02:15:43.158Z,33.77
2023-02-20T02:18:32.650Z,44.17
2023-02-20T02:21:31.166Z,40.30
2023-02-20T02:24:20.350Z,38.67
2023-02-20T02:26:55.609Z,37.33
2023-02-20T02:29:28.965Z,38.63
2023-02-20T02:32:01.835Z,43.27
2023-02-20T02:34:35.632Z,47.33
2023-02-20T02:37:06.677Z,48.80
2023-02-20T02:39:37.443Z,53.43
2023-02-20T02:42:08.543Z,41.93
2023-02-20T02:44:38.699Z,38.00
2023-02-20T02:47:07.687Z,42.40
2023-02-20T02:49:37.828Z,47.03
2023-02-20T02:52:07.916Z,41.77
2023-02-20T02:54:36.288Z,37.17
2023-02-20T02:57:28.638Z,45.17
2023-02-20T02:59:58.382Z,34.67
2023-02-20T03:02:26.923Z,37.70
2023-02-20T03:04:55.954Z,28.60
2023-02-20T03:07:25.770Z,32.40
2023-02-20T03:09:54.536Z,37.77
2023-02-20T03:12:23.293Z,40.73
2023-02-20T03:15:10.927Z,33.60
2023-02-20T03:17:40.167Z,31.67
2023-02-20T03:20:10.152Z,38.17
2023-02-20T03:22:41.360Z,38.57
2023-02-20T03:25:10.508Z,46.10
2023-02-20T03:27:40.010Z,31.27
2023-02-20T03:30:09.206Z,35.17
2023-02-20T03:32:55.602Z,41.47
2023-02-20T03:35:41.653Z,53.23
2023-02-20T03:38:29.195Z,41.50
2023-02-20T03:41:15.486Z,43.20
2023-02-20T03:43:44.014Z,46.30
2023-02-20T03:46:13.629Z,44.30
2023-02-20T03:48:44.135Z,38.67
2023-02-20T03:51:15.593Z,26.33
2023-02-20T03:53:45.517Z,40.53
2023-02-20T03:56:14.395Z,36.97
2023-02-20T03:58:43.948Z,37.50
2023-02-20T04:01:12.748Z,32.83
2023-02-20T04:03:42.092Z,43.07
2023-02-20T04:06:11.360Z,35.57
2023-02-20T04:08:40.684Z,36.13
2023-02-20T04:11:11.290Z,45.83
2023-02-20T04:13:40.056Z,37.23
2023-02-20T04:16:08.700Z,31.20
2023-02-20T04:18:37.122Z,31.40
2023-02-20T04:21:06.525Z,36.60
2023-02-20T04:23:36.253Z,34.00
2023-02-20T04:26:05.978Z,32.47
2023-02-20T04:28:35.877Z,34.00
2023-02-20T04:31:04.489Z,35.57
2023-02-20T04:33:33.063Z,34.57
2023-02-20T04:36:02.299Z,37.27
2023-02-20T04:38:30.713Z,33.73
2023-02-20T04:40:59.060Z,34.97
2023-02-20T04:43:27.679Z,30.97
2023-02-20T04:45:57.473Z,35.83
2023-02-20T04:48:26.120Z,42.43
2023-02-20T04:50:54.737Z,30.00
2023-02-20T04:53:23.180Z,35.30
2023-02-20T04:55:51.618Z,40.67
2023-02-20T04:58:19.982Z,35.03
2023-02-20T05:00:48.459Z,35.57
2023-02-20T05:03:18.229Z,34.27
2023-02-20T05:05:46.663Z,38.47
2023-02-20T05:08:15.035Z,31.43
2023-02-20T05:10:43.538Z,34.73
2023-02-20T05:13:11.958Z,28.90
2023-02-20T05:15:40.722Z,33.07
2023-02-20T05:18:09.159Z,36.30
2023-02-20T05:20:56.407Z,31.03
2023-02-20T05:23:24.811Z,39.50
2023-02-20T05:25:54.791Z,31.77
2023-02-20T05:28:23.187Z,31.27
2023-02-20T05:30:52.125Z,36.30
2023-02-20T05:33:20.664Z,29.37
2023-02-20T05:35:50.653Z,26.10
2023-02-20T05:38:19.250Z,28.97
2023-02-20T05:40:47.773Z,31.17
2023-02-20T05:43:17.015Z,33.47
2023-02-20T05:45:45.534Z,40.33
2023-02-20T05:48:14.051Z,26.93
2023-02-20T05:50:42.428Z,28.30
2023-02-20T05:53:12.165Z,35.10
2023-02-20T05:55:40.617Z,28.63
2023-02-20T05:58:09.178Z,36.93
2023-02-20T06:00:38.577Z,35.80
2023-02-20T06:03:08.560Z,30.47
2023-02-20T06:05:37.084Z,33.40
2023-02-20T06:08:06.221Z,34.47
2023-02-20T06:10:36.134Z,32.57
2023-02-20T06:13:04.701Z,28.97
2023-02-20T06:15:33.400Z,32.60
2023-02-20T06:18:01.805Z,34.60
2023-02-20T06:20:30.175Z,37.50
2023-02-20T06:22:58.810Z,35.30
2023-02-20T06:25:30.176Z,30.53
2023-02-20T06:28:00.127Z,35.50
2023-02-20T06:30:28.676Z,32.63
2023-02-20T06:33:00.314Z,38.00
2023-02-20T06:35:28.702Z,28.63
2023-02-20T06:37:57.200Z,27.83
2023-02-20T06:40:25.739Z,25.67
2023-02-20T06:42:54.406Z,27.37
2023-02-20T06:45:24.184Z,29.40
2023-02-20T06:47:52.574Z,31.03
2023-02-20T06:50:21.376Z,29.03
2023-02-20T06:52:49.810Z,30.10
2023-02-20T06:55:18.458Z,26.57
2023-02-20T06:57:46.860Z,24.93
2023-02-20T07:00:15.813Z,32.50
2023-02-20T07:02:45.640Z,25.43
2023-02-20T07:05:14.007Z,25.40
2023-02-20T07:07:42.396Z,20.67
2023-02-20T07:10:11.100Z,29.07
2023-02-20T07:12:39.811Z,26.00
2023-02-20T07:15:08.666Z,29.60
2023-02-20T07:17:37.240Z,24.63
2023-02-20T07:20:07.665Z,26.57
2023-02-20T07:22:36.069Z,28.20
2023-02-20T07:25:04.663Z,28.77
2023-02-20T07:27:33.220Z,27.70
2023-02-20T07:30:01.853Z,24.33
2023-02-20T07:32:30.272Z,32.33
2023-02-20T07:35:05.394Z,29.03
2023-02-20T07:37:36.841Z,27.83
2023-02-20T07:40:09.034Z,30.90
2023-02-20T07:42:40.717Z,30.77
2023-02-20T07:45:09.897Z,23.40
2023-02-20T07:47:38.362Z,27.27
2023-02-20T07:50:09.745Z,31.07
2023-02-20T07:52:39.635Z,27.63
2023-02-20T07:55:08.252Z,30.20
2023-02-20T07:57:39.483Z,32.30
2023-02-20T08:00:09.347Z,29.93
2023-02-20T08:02:38.098Z,31.00
2023-02-20T08:05:06.779Z,19.27
2023-02-20T08:07:35.473Z,30.30
2023-02-20T08:10:05.378Z,25.30
2023-02-20T08:12:33.772Z,26.17
2023-02-20T08:15:02.324Z,24.17
2023-02-20T08:17:45.357Z,26.20
2023-02-20T08:20:15.156Z,24.23
2023-02-20T08:22:43.599Z,23.70
2023-02-20T08:25:13.389Z,28.30
2023-02-20T08:27:43.644Z,20.57
2023-02-20T08:30:12.968Z,21.73
2023-02-20T08:32:41.502Z,24.33
2023-02-20T08:35:10.275Z,20.37
2023-02-20T08:37:38.883Z,22.73
2023-02-20T08:40:08.847Z,21.23
2023-02-20T08:42:38.735Z,21.23
2023-02-20T08:45:07.559Z,22.97
2023-02-20T08:47:36.206Z,24.50
2023-02-20T08:50:04.941Z,22.53
2023-02-20T08:52:33.406Z,21.10
2023-02-20T08:55:01.923Z,26.57
2023-02-20T08:57:30.340Z,21.73
2023-02-20T09:00:00.331Z,20.73
2023-02-20T09:02:30.378Z,16.40
2023-02-20T09:04:59.121Z,16.47
2023-02-20T09:07:27.557Z,20.67
2023-02-20T09:09:56.165Z,19.30
2023-02-20T09:12:25.342Z,16.93
2023-02-20T09:14:56.625Z,21.30
2023-02-20T09:17:26.681Z,18.07
2023-02-20T09:19:55.082Z,20.83
2023-02-20T09:22:24.404Z,21.87
2023-02-20T09:24:53.050Z,17.70
2023-02-20T09:27:21.536Z,16.87
2023-02-20T09:29:50.025Z,16.97
2023-02-20T09:32:18.739Z,15.53
2023-02-20T09:34:48.740Z,20.23
2023-02-20T09:37:17.225Z,16.33
2023-02-20T09:39:45.756Z,19.87
2023-02-20T09:42:20.380Z,18.03
2023-02-20T09:44:50.901Z,18.13
2023-02-20T09:47:28.317Z,18.47
2023-02-20T09:49:59.430Z,18.03
2023-02-20T09:52:30.897Z,20.67
2023-02-20T09:55:01.070Z,21.27
2023-02-20T09:57:29.503Z,25.00
2023-02-20T10:00:02.633Z,22.37
2023-02-20T10:02:33.728Z,18.80
2023-02-20T10:05:08.394Z,21.63
2023-02-20T10:07:37.057Z,21.47
2023-02-20T10:10:10.151Z,15.90
2023-02-20T10:12:40.501Z,23.17
2023-02-20T10:15:11.109Z,18.60
2023-02-20T10:17:40.726Z,17.00
2023-02-20T10:20:13.562Z,14.47
2023-02-20T10:22:45.368Z,17.00
2023-02-20T10:25:14.835Z,19.00
2023-02-20T10:27:45.976Z,13.17
2023-02-20T10:30:14.844Z,14.60
2023-02-20T10:32:53.073Z,14.27
2023-02-20T10:35:24.892Z,18.17
2023-02-20T10:37:54.146Z,13.83
2023-02-20T10:40:24.566Z,13.93
2023-02-20T10:42:54.684Z,12.97
2023-02-20T10:45:27.557Z,16.10
2023-02-20T10:47:57.223Z,14.90
2023-02-20T10:50:27.539Z,12.87
2023-02-20T10:52:57.476Z,16.63
2023-02-20T10:55:27.359Z,19.07
2023-02-20T10:57:57.421Z,16.40
2023-02-20T11:00:33.125Z,13.40
2023-02-20T11:03:03.267Z,12.97
2023-02-20T11:05:34.375Z,13.97
2023-02-20T11:08:02.975Z,19.33
2023-02-20T11:10:32.534Z,12.87
2023-02-20T11:13:01.358Z,17.00
2023-02-20T11:15:30.511Z,11.90
2023-02-20T11:17:59.955Z,16.20
2023-02-20T11:20:46.110Z,13.30
2023-02-20T11:23:29.425Z,13.67
2023-02-20T11:25:58.004Z,15.07
2023-02-20T11:28:26.564Z,16.93
2023-02-20T11:31:00.235Z,12.77
2023-02-20T11:33:29.373Z,12.53
2023-02-20T11:35:59.406Z,23.30
2023-02-20T11:38:32.278Z,15.43
2023-02-20T11:41:26.053Z,15.80
2023-02-20T11:44:07.312Z,14.30
2023-02-20T11:46:36.092Z,23.13
2023-02-20T11:49:06.485Z,14.93
2023-02-20T11:51:37.228Z,16.33
2023-02-20T11:54:09.144Z,15.43
2023-02-20T11:56:37.918Z,12.87
2023-02-20T11:59:19.937Z,19.10
2023-02-20T12:02:00.300Z,15.13
2023-02-20T12:04:29.566Z,14.37
2023-02-20T12:06:59.449Z,17.00
2023-02-20T12:09:28.251Z,17.43
2023-02-20T12:11:57.627Z,17.63
2023-02-20T12:14:26.322Z,14.57
2023-02-20T12:16:58.880Z,13.37
2023-02-20T12:19:28.951Z,17.37
2023-02-20T12:22:06.621Z,11.17
2023-02-20T12:24:39.947Z,10.50
2023-02-20T12:27:13.400Z,11.07
2023-02-20T12:29:44.132Z,12.23
2023-02-20T12:32:25.889Z,12.67
2023-02-20T12:34:56.983Z,11.40
2023-02-20T12:37:29.716Z,15.43
2023-02-20T12:40:00.986Z,12.93
2023-02-20T12:42:31.117Z,12.93
2023-02-20T12:45:03.248Z,14.60
2023-02-20T12:47:33.514Z,14.07
2023-02-20T12:50:20.807Z,11.43
2023-02-20T12:52:56.753Z,17.93
2023-02-20T12:55:25.859Z,11.40
2023-02-20T12:57:57.244Z,18.73
2023-02-20T13:00:28.232Z,19.23
2023-02-20T13:02:57.650Z,11.00
2023-02-20T13:05:27.323Z,13.13
2023-02-20T13:07:57.765Z,13.77
2023-02-20T13:10:26.898Z,16.07
2023-02-20T13:12:56.134Z,11.97
2023-02-20T13:15:28.058Z,15.47
2023-02-20T13:17:58.057Z,11.30
2023-02-20T13:20:26.991Z,12.20
2023-02-20T13:23:03.774Z,21.20
2023-02-20T13:25:41.918Z,11.07
2023-02-20T13:28:25.402Z,15.73
2023-02-20T13:31:09.834Z,9.40
2023-02-20T13:33:38.547Z,14.70
2023-02-20T13:36:07.653Z,11.10
2023-02-20T13:38:37.841Z,8.13
2023-02-20T13:41:08.281Z,9.33
2023-02-20T13:43:36.897Z,9.60
2023-02-20T13:46:15.243Z,8.33
2023-02-20T13:48:45.302Z,12.17
2023-02-20T13:51:35.917Z,12.87
2023-02-20T13:54:17.399Z,11.47
2023-02-20T13:56:47.849Z,14.50
2023-02-20T13:59:18.244Z,8.57
2023-02-20T14:01:59.938Z,12.83
2023-02-20T14:04:31.933Z,12.20
2023-02-20T14:07:00.825Z,13.73
2023-02-20T14:09:32.308Z,15.50
2023-02-20T14:12:05.910Z,12.47
2023-02-20T14:14:35.089Z,10.63
2023-02-20T14:17:07.271Z,10.17
2023-02-20T14:19:37.484Z,14.83
2023-02-20T14:22:28.184Z,12.20
2023-02-20T14:25:30.114Z,9.40
2023-02-20T14:28:15.941Z,8.20
2023-02-20T14:30:47.200Z,9.83
2023-02-20T14:33:21.691Z,12.93
2023-02-20T14:36:11.392Z,11.40
2023-02-20T14:38:44.583Z,11.03
2023-02-20T14:41:14.400Z,10.40
2023-02-20T14:43:45.514Z,9.93
2023-02-20T14:46:17.504Z,11.63
2023-02-20T14:48:45.918Z,9.53
2023-02-20T14:51:15.473Z,13.43
2023-02-20T14:53:44.362Z,13.07
2023-02-20T14:56:15.492Z,11.27
2023-02-20T14:58:45.833Z,12.43
2023-02-20T15:01:18.796Z,13.37
2023-02-20T15:03:49.294Z,15.60
2023-02-20T15:06:18.153Z,14.63
2023-02-20T15:08:46.830Z,13.73
2023-02-20T15:11:15.740Z,12.20
2023-02-20T15:13:45.093Z,13.77
2023-02-20T15:16:18.235Z,14.00
2023-02-20T15:18:50.102Z,14.03
2023-02-20T15:21:33.110Z,13.83
2023-02-20T15:24:13.665Z,11.50
2023-02-20T15:26:43.714Z,18.20
2023-02-20T15:29:14.202Z,11.20
2023-02-20T15:31:44.646Z,12.63
2023-02-20T15:34:15.392Z,19.80
2023-02-20T15:36:43.923Z,12.43
2023-02-20T15:39:13.131Z,14.13
2023-02-20T15:41:42.274Z,13.53
2023-02-20T15:44:11.218Z,13.03
2023-02-20T15:46:39.946Z,14.20
2023-02-20T15:49:16.057Z,13.73
2023-02-20T15:51:52.430Z,11.97
2023-02-20T15:54:22.654Z,16.47
2023-02-20T15:56:53.941Z,14.33
2023-02-20T15:59:22.525Z,15.33
2023-02-20T16:01:51.253Z,18.40
2023-02-20T16:04:21.390Z,13.50
2023-02-20T16:06:49.814Z,18.77
2023-02-20T16:09:18.532Z,14.80
2023-02-20T16:11:47.247Z,17.37
2023-02-20T16:14:15.993Z,17.57
2023-02-20T16:16:45.733Z,19.17
2023-02-20T16:19:15.247Z,11.90
2023-02-20T16:21:58.178Z,14.33
2023-02-20T16:24:27.439Z,11.90
2023-02-20T16:26:55.810Z,14.57
2023-02-20T16:29:24.942Z,13.60
2023-02-20T16:32:14.759Z,11.33
2023-02-20T16:34:45.808Z,15.10
2023-02-20T16:37:16.580Z,16.77
2023-02-20T16:39:45.140Z,15.57
2023-02-20T16:42:22.194Z,13.30
2023-02-20T16:44:51.219Z,17.43
2023-02-20T16:47:21.140Z,19.77
2023-02-20T16:49:50.195Z,27.03
2023-02-20T16:52:21.693Z,13.20
2023-02-20T16:54:50.759Z,23.73
2023-02-20T16:57:21.601Z,15.50
2023-02-20T16:59:50.205Z,17.77
2023-02-20T17:02:19.114Z,20.33
2023-02-20T17:04:47.735Z,15.67
2023-02-20T17:07:16.398Z,15.10
2023-02-20T17:09:46.927Z,15.20
2023-02-20T17:12:16.308Z,20.13
2023-02-20T17:14:45.204Z,15.03
2023-02-20T17:17:13.995Z,14.70
2023-02-20T17:19:43.025Z,18.60
2023-02-20T17:22:11.781Z,15.43
2023-02-20T17:24:41.376Z,14.63
2023-02-20T17:27:11.869Z,16.67
2023-02-20T17:29:40.480Z,25.47
2023-02-20T17:32:09.211Z,17.73
2023-02-20T17:34:37.752Z,19.00
2023-02-20T17:37:06.410Z,15.37
2023-02-20T17:39:34.862Z,18.63
2023-02-20T17:42:03.694Z,22.80
2023-02-20T17:44:33.725Z,20.80
2023-02-20T17:47:02.401Z,19.50
2023-02-20T17:49:30.984Z,16.67
2023-02-20T17:52:00.390Z,20.53
2023-02-20T17:54:29.320Z,20.87
2023-02-20T17:56:57.866Z,15.97
2023-02-20T17:59:27.465Z,18.93
2023-02-20T18:01:57.232Z,17.30
2023-02-20T18:04:26.073Z,20.23
2023-02-20T18:06:55.425Z,19.07
2023-02-20T18:09:23.981Z,18.10
2023-02-20T18:11:52.521Z,19.67
2023-02-20T18:14:21.135Z,15.30
2023-02-20T18:16:49.603Z,27.07
2023-02-20T18:19:20.512Z,16.43
2023-02-20T18:21:51.929Z,20.67
2023-02-20T18:24:23.684Z,18.43
2023-02-20T18:26:53.022Z,16.77
2023-02-20T18:29:21.411Z,19.17
2023-02-20T18:31:50.166Z,15.17
2023-02-20T18:34:23.641Z,18.53
2023-02-20T18:36:52.086Z,18.30
2023-02-20T18:39:20.528Z,17.67
2023-02-20T18:41:52.103Z,20.03
2023-02-20T18:44:20.724Z,19.73
2023-02-20T18:46:49.419Z,19.30
2023-02-20T18:49:20.920Z,18.73
2023-02-20T18:51:50.910Z,16.03
2023-02-20T18:54:20.183Z,15.23
2023-02-20T18:56:49.045Z,20.70
2023-02-20T18:59:18.102Z,20.93
2023-02-20T19:01:46.749Z,23.23
2023-02-20T19:04:15.666Z,22.13
2023-02-20T19:06:45.013Z,21.73
2023-02-20T19:09:15.290Z,19.40
2023-02-20T19:11:44.067Z,21.00
2023-02-20T19:14:12.461Z,21.97
2023-02-20T19:16:40.982Z,20.90
2023-02-20T19:19:13.121Z,21.87
2023-02-20T19:21:42.906Z,28.27
2023-02-20T19:24:12.519Z,25.47
2023-02-20T19:26:42.452Z,25.30
2023-02-20T19:29:11.916Z,26.40
2023-02-20T19:31:40.728Z,26.47
2023-02-20T19:34:10.427Z,28.00
2023-02-20T19:36:41.241Z,19.40
2023-02-20T19:39:10.239Z,22.67
2023-02-20T19:41:39.540Z,27.40
2023-02-20T19:44:09.450Z,23.00
2023-02-20T19:46:39.015Z,21.60
2023-02-20T19:49:12.661Z,19.67
2023-02-20T19:51:47.366Z,23.50
2023-02-20T19:54:15.933Z,22.00
2023-02-20T19:56:48.406Z,29.27
2023-02-20T19:59:18.385Z,22.70
2023-02-20T20:01:50.769Z,23.10
2023-02-20T20:04:19.575Z,27.43
2023-02-20T20:06:48.375Z,26.20
2023-02-20T20:09:30.139Z,24.17
2023-02-20T20:12:02.115Z,25.80
2023-02-20T20:14:32.237Z,18.60
2023-02-20T20:17:02.840Z,24.70
2023-02-20T20:19:31.324Z,22.60
2023-02-20T20:21:59.806Z,22.77
2023-02-20T20:24:28.622Z,25.77
2023-02-20T20:26:59.161Z,26.60
2023-02-20T20:29:28.021Z,22.67
2023-02-20T20:31:59.212Z,22.00
2023-02-20T20:34:27.716Z,23.00
2023-02-20T20:36:56.187Z,31.50
2023-02-20T20:39:24.708Z,25.90
2023-02-20T20:41:53.127Z,21.63
2023-02-20T20:44:23.831Z,18.53
2023-02-20T20:46:52.473Z,23.97
2023-02-20T20:49:22.308Z,20.03
2023-02-20T20:51:50.773Z,19.50
2023-02-20T20:54:19.750Z,15.40
2023-02-20T20:56:48.695Z,24.40
2023-02-20T20:59:17.789Z,21.07
2023-02-20T21:01:46.319Z,17.17
2023-02-20T21:04:15.598Z,26.37
2023-02-20T21:06:49.921Z,18.63
2023-02-20T21:09:20.852Z,25.60
2023-02-20T21:11:50.843Z,23.73
2023-02-20T21:14:20.595Z,19.30
2023-02-20T21:16:50.102Z,23.87
2023-02-20T21:19:19.880Z,16.40
2023-02-20T21:21:53.944Z,23.67
2023-02-20T21:24:22.576Z,21.03
2023-02-20T21:26:51.057Z,19.77
2023-02-20T21:29:19.670Z,23.07
2023-02-20T21:31:54.529Z,22.63
2023-02-20T21:34:23.067Z,22.90
2023-02-20T21:36:53.178Z,22.53
2023-02-20T21:39:23.614Z,24.13
2023-02-20T21:42:09.964Z,23.47
2023-02-20T21:44:39.493Z,23.33
2023-02-20T21:47:08.760Z,24.33
2023-02-20T21:49:37.588Z,28.00
2023-02-20T21:52:07.509Z,27.43
2023-02-20T21:54:36.250Z,22.20
2023-02-20T21:57:04.781Z,22.60
2023-02-20T21:59:32.119Z,30.97
2023-02-20T22:01:59.559Z,22.97
2023-02-20T22:04:26.957Z,24.17
2023-02-20T22:07:12.847Z,24.03
2023-02-20T22:10:00.193Z,20.67
2023-02-20T22:12:46.580Z,22.67
2023-02-20T22:15:33.118Z,23.33
2023-02-20T22:18:18.946Z,25.13
2023-02-20T22:21:04.960Z,18.70
2023-02-20T22:23:51.159Z,24.30
2023-02-20T22:26:39.286Z,20.47
2023-02-20T22:29:25.260Z,29.33
2023-02-20T22:32:11.715Z,23.33
2023-02-20T22:35:09.592Z,31.20
2023-02-20T22:37:57.407Z,25.63
2023-02-20T22:40:43.224Z,22.67
2023-02-20T22:43:31.229Z,29.03
2023-02-20T22:46:17.668Z,23.00
2023-02-20T22:49:03.603Z,26.00
2023-02-20T22:51:49.919Z,28.83
2023-02-20T22:54:36.264Z,25.80
2023-02-20T22:57:22.713Z,25.83
2023-02-20T23:00:10.765Z,29.87
2023-02-20T23:02:56.726Z,23.80
2023-02-20T23:05:43.452Z,33.20
2023-02-20T23:08:30.858Z,28.20
2023-02-20T23:11:16.848Z,29.30
2023-02-20T23:14:05.063Z,32.67
2023-02-20T23:16:52.626Z,28.90
2023-02-20T23:19:38.509Z,31.73
2023-02-20T23:22:26.964Z,33.17
2023-02-20T23:25:13.170Z,31.20
2023-02-20T23:27:59.585Z,32.00
2023-02-20T23:30:45.668Z,31.43
2023-02-20T23:33:33.616Z,32.67
2023-02-20T23:36:19.614Z,39.63
2023-02-20T23:39:05.802Z,39.73
2023-02-20T23:41:51.792Z,33.37
2023-02-20T23:44:37.780Z,35.20
2023-02-20T23:47:23.939Z,27.67
2023-02-20T23:50:11.588Z,31.93
2023-02-20T23:52:57.869Z,33.97
2023-02-20T23:55:43.952Z,30.10
2023-02-20T23:58:29.956Z,34.13
